sensor_id;sensor_type;location;lat;lon;timestamp;P1;durP1;ratioP1;P2;durP2;ratioP2
78555;SDS011;67851;51.354;7.744;2023-12-29T00:00:57;2.42;;;1.10;;
78555;SDS011;67851;51.354;7.744;2023-12-29T00:03:24;4.18;;;1.17;;
78555;SDS011;67851;51.354;7.744;2023-12-29T00:05:52;4.45;;;1.27;;
78555;SDS011;67851;51.354;7.744;2023-12-29T00:08:18;3.85;;;1.27;;
78555;SDS011;67851;51.354;7.744;2023-12-29T00:10:45;7.65;;;1.38;;
78555;SDS011;67851;51.354;7.744;2023-12-29T00:13:12;4.00;;;1.10;;
78555;SDS011;67851;51.354;7.744;2023-12-29T00:15:39;4.07;;;1.20;;
78555;SDS011;67851;51.354;7.744;2023-12-29T00:18:05;5.03;;;1.20;;
78555;SDS011;67851;51.354;7.744;2023-12-29T00:20:32;4.40;;;1.40;;
78555;SDS011;67851;51.354;7.744;2023-12-29T00:23:07;7.75;;;1.23;;
78555;SDS011;67851;51.354;7.744;2023-12-29T00:25:37;5.72;;;1.25;;
78555;SDS011;67851;51.354;7.744;2023-12-29T00:28:04;4.60;;;1.20;;
78555;SDS011;67851;51.354;7.744;2023-12-29T00:30:31;6.70;;;2.20;;
78555;SDS011;67851;51.354;7.744;2023-12-29T00:33:18;9.88;;;1.40;;
78555;SDS011;67851;51.354;7.744;2023-12-29T00:35:45;5.82;;;1.20;;
78555;SDS011;67851;51.354;7.744;2023-12-29T00:38:12;4.93;;;1.17;;
78555;SDS011;67851;51.354;7.744;2023-12-29T00:40:39;3.33;;;1.00;;
78555;SDS011;67851;51.354;7.744;2023-12-29T00:43:06;8.98;;;1.40;;
78555;SDS011;67851;51.354;7.744;2023-12-29T00:45:32;5.07;;;0.90;;
78555;SDS011;67851;51.354;7.744;2023-12-29T00:48:02;5.30;;;1.02;;
78555;SDS011;67851;51.354;7.744;2023-12-29T00:50:29;6.72;;;2.60;;
78555;SDS011;67851;51.354;7.744;2023-12-29T00:52:56;4.72;;;2.35;;
78555;SDS011;67851;51.354;7.744;2023-12-29T00:55:23;3.85;;;1.25;;
78555;SDS011;67851;51.354;7.744;2023-12-29T00:57:50;4.85;;;1.05;;
78555;SDS011;67851;51.354;7.744;2023-12-29T01:00:17;3.85;;;1.15;;
78555;SDS011;67851;51.354;7.744;2023-12-29T01:02:44;6.30;;;1.33;;
78555;SDS011;67851;51.354;7.744;2023-12-29T01:05:15;7.00;;;0.90;;
78555;SDS011;67851;51.354;7.744;2023-12-29T01:10:10;3.13;;;1.15;;
78555;SDS011;67851;51.354;7.744;2023-12-29T01:12:37;7.63;;;1.30;;
78555;SDS011;67851;51.354;7.744;2023-12-29T01:15:04;8.70;;;1.95;;
78555;SDS011;67851;51.354;7.744;2023-12-29T01:17:31;4.10;;;1.00;;
78555;SDS011;67851;51.354;7.744;2023-12-29T01:19:58;5.90;;;1.50;;
78555;SDS011;67851;51.354;7.744;2023-12-29T01:22:25;4.13;;;1.00;;
78555;SDS011;67851;51.354;7.744;2023-12-29T01:24:52;5.93;;;1.15;;
78555;SDS011;67851;51.354;7.744;2023-12-29T01:27:19;7.30;;;2.13;;
78555;SDS011;67851;51.354;7.744;2023-12-29T01:29:45;4.85;;;1.23;;
78555;SDS011;67851;51.354;7.744;2023-12-29T01:32:12;7.38;;;1.38;;
78555;SDS011;67851;51.354;7.744;2023-12-29T01:34:39;4.22;;;1.17;;
78555;SDS011;67851;51.354;7.744;2023-12-29T01:37:06;5.00;;;1.30;;
78555;SDS011;67851;51.354;7.744;2023-12-29T01:39:33;5.80;;;1.55;;
78555;SDS011;67851;51.354;7.744;2023-12-29T01:42:01;9.73;;;1.10;;
78555;SDS011;67851;51.354;7.744;2023-12-29T01:44:28;6.13;;;1.20;;
78555;SDS011;67851;51.354;7.744;2023-12-29T01:46:55;4.20;;;1.10;;
78555;SDS011;67851;51.354;7.744;2023-12-29T01:49:25;4.13;;;1.10;;
78555;SDS011;67851;51.354;7.744;2023-12-29T01:51:56;5.88;;;1.30;;
78555;SDS011;67851;51.354;7.744;2023-12-29T01:54:25;4.30;;;1.02;;
78555;SDS011;67851;51.354;7.744;2023-12-29T01:56:54;6.13;;;1.20;;
78555;SDS011;67851;51.354;7.744;2023-12-29T01:59:24;6.30;;;1.70;;
78555;SDS011;67851;51.354;7.744;2023-12-29T02:01:53;4.00;;;1.20;;
78555;SDS011;67851;51.354;7.744;2023-12-29T02:04:21;5.45;;;1.10;;
78555;SDS011;67851;51.354;7.744;2023-12-29T02:06:51;8.27;;;1.52;;
78555;SDS011;67851;51.354;7.744;2023-12-29T02:09:18;5.10;;;1.15;;
78555;SDS011;67851;51.354;7.744;2023-12-29T02:11:45;2.83;;;1.15;;
78555;SDS011;67851;51.354;7.744;2023-12-29T02:14:16;7.38;;;1.38;;
78555;SDS011;67851;51.354;7.744;2023-12-29T02:19:24;3.13;;;1.10;;
78555;SDS011;67851;51.354;7.744;2023-12-29T02:21:57;6.65;;;1.50;;
78555;SDS011;67851;51.354;7.744;2023-12-29T02:24:24;6.32;;;1.25;;
78555;SDS011;67851;51.354;7.744;2023-12-29T02:26:52;4.05;;;2.03;;
78555;SDS011;67851;51.354;7.744;2023-12-29T02:29:24;8.07;;;1.35;;
78555;SDS011;67851;51.354;7.744;2023-12-29T02:31:52;5.72;;;1.30;;
78555;SDS011;67851;51.354;7.744;2023-12-29T02:34:21;7.75;;;1.52;;
78555;SDS011;67851;51.354;7.744;2023-12-29T02:36:49;10.05;;;1.38;;
78555;SDS011;67851;51.354;7.744;2023-12-29T02:39:17;9.10;;;1.60;;
78555;SDS011;67851;51.354;7.744;2023-12-29T02:41:44;7.22;;;1.52;;
78555;SDS011;67851;51.354;7.744;2023-12-29T02:44:12;6.35;;;1.35;;
78555;SDS011;67851;51.354;7.744;2023-12-29T02:46:39;5.10;;;1.65;;
78555;SDS011;67851;51.354;7.744;2023-12-29T02:49:07;6.20;;;1.60;;
78555;SDS011;67851;51.354;7.744;2023-12-29T02:51:39;9.10;;;1.77;;
78555;SDS011;67851;51.354;7.744;2023-12-29T02:54:07;5.97;;;1.70;;
78555;SDS011;67851;51.354;7.744;2023-12-29T02:56:34;6.35;;;1.88;;
78555;SDS011;67851;51.354;7.744;2023-12-29T02:59:03;8.93;;;2.05;;
78555;SDS011;67851;51.354;7.744;2023-12-29T03:01:30;11.88;;;2.97;;
78555;SDS011;67851;51.354;7.744;2023-12-29T03:03:56;10.85;;;2.53;;
78555;SDS011;67851;51.354;7.744;2023-12-29T03:06:25;6.65;;;1.83;;
78555;SDS011;67851;51.354;7.744;2023-12-29T03:08:52;4.72;;;1.73;;
78555;SDS011;67851;51.354;7.744;2023-12-29T03:11:20;8.65;;;2.00;;
78555;SDS011;67851;51.354;7.744;2023-12-29T03:13:46;5.95;;;1.63;;
78555;SDS011;67851;51.354;7.744;2023-12-29T03:16:13;10.73;;;2.45;;
78555;SDS011;67851;51.354;7.744;2023-12-29T03:18:40;10.48;;;2.00;;
78555;SDS011;67851;51.354;7.744;2023-12-29T03:21:08;15.00;;;2.53;;
78555;SDS011;67851;51.354;7.744;2023-12-29T03:23:35;11.98;;;2.40;;
78555;SDS011;67851;51.354;7.744;2023-12-29T03:26:02;15.68;;;2.92;;
78555;SDS011;67851;51.354;7.744;2023-12-29T03:28:29;11.25;;;2.35;;
78555;SDS011;67851;51.354;7.744;2023-12-29T03:30:56;10.75;;;2.20;;
78555;SDS011;67851;51.354;7.744;2023-12-29T03:33:23;9.90;;;2.47;;
78555;SDS011;67851;51.354;7.744;2023-12-29T03:35:49;9.45;;;2.60;;
78555;SDS011;67851;51.354;7.744;2023-12-29T03:38:16;9.50;;;2.28;;
78555;SDS011;67851;51.354;7.744;2023-12-29T03:40:43;10.15;;;2.75;;
78555;SDS011;67851;51.354;7.744;2023-12-29T03:43:11;9.60;;;3.20;;
78555;SDS011;67851;51.354;7.744;2023-12-29T03:45:40;12.38;;;2.47;;
78555;SDS011;67851;51.354;7.744;2023-12-29T03:48:07;15.18;;;3.08;;
78555;SDS011;67851;51.354;7.744;2023-12-29T03:50:35;13.05;;;2.20;;
78555;SDS011;67851;51.354;7.744;2023-12-29T03:53:02;9.35;;;2.58;;
78555;SDS011;67851;51.354;7.744;2023-12-29T03:55:29;18.80;;;3.47;;
78555;SDS011;67851;51.354;7.744;2023-12-29T03:57:55;10.35;;;3.00;;
78555;SDS011;67851;51.354;7.744;2023-12-29T04:00:22;14.57;;;3.28;;
78555;SDS011;67851;51.354;7.744;2023-12-29T04:02:49;20.85;;;3.45;;
78555;SDS011;67851;51.354;7.744;2023-12-29T04:05:16;11.07;;;2.75;;
78555;SDS011;67851;51.354;7.744;2023-12-29T04:07:43;13.70;;;3.15;;
78555;SDS011;67851;51.354;7.744;2023-12-29T04:10:10;14.90;;;3.83;;
78555;SDS011;67851;51.354;7.744;2023-12-29T04:12:37;13.13;;;2.60;;
78555;SDS011;67851;51.354;7.744;2023-12-29T04:15:04;17.88;;;3.35;;
78555;SDS011;67851;51.354;7.744;2023-12-29T04:17:31;12.77;;;3.58;;
78555;SDS011;67851;51.354;7.744;2023-12-29T04:19:58;12.20;;;2.75;;
78555;SDS011;67851;51.354;7.744;2023-12-29T04:22:24;13.77;;;2.80;;
78555;SDS011;67851;51.354;7.744;2023-12-29T04:24:51;10.90;;;2.50;;
78555;SDS011;67851;51.354;7.744;2023-12-29T04:27:18;22.90;;;4.95;;
78555;SDS011;67851;51.354;7.744;2023-12-29T04:29:45;13.82;;;2.63;;
78555;SDS011;67851;51.354;7.744;2023-12-29T04:32:11;10.95;;;2.35;;
78555;SDS011;67851;51.354;7.744;2023-12-29T04:34:38;13.32;;;2.50;;
78555;SDS011;67851;51.354;7.744;2023-12-29T04:37:05;16.95;;;2.72;;
78555;SDS011;67851;51.354;7.744;2023-12-29T04:39:32;6.85;;;1.92;;
78555;SDS011;67851;51.354;7.744;2023-12-29T04:41:59;11.32;;;3.03;;
78555;SDS011;67851;51.354;7.744;2023-12-29T04:44:26;11.07;;;2.10;;
78555;SDS011;67851;51.354;7.744;2023-12-29T04:46:52;10.65;;;2.60;;
78555;SDS011;67851;51.354;7.744;2023-12-29T04:49:19;10.52;;;2.33;;
78555;SDS011;67851;51.354;7.744;2023-12-29T04:51:46;11.52;;;2.45;;
78555;SDS011;67851;51.354;7.744;2023-12-29T04:54:14;11.00;;;2.38;;
78555;SDS011;67851;51.354;7.744;2023-12-29T04:56:41;9.80;;;2.90;;
78555;SDS011;67851;51.354;7.744;2023-12-29T04:59:08;9.50;;;2.33;;
78555;SDS011;67851;51.354;7.744;2023-12-29T05:01:35;16.17;;;2.97;;
78555;SDS011;67851;51.354;7.744;2023-12-29T05:04:02;10.48;;;2.22;;
78555;SDS011;67851;51.354;7.744;2023-12-29T05:06:29;10.13;;;3.42;;
78555;SDS011;67851;51.354;7.744;2023-12-29T05:08:55;9.30;;;2.35;;
78555;SDS011;67851;51.354;7.744;2023-12-29T05:11:22;12.18;;;2.30;;
78555;SDS011;67851;51.354;7.744;2023-12-29T05:13:49;10.98;;;2.55;;
78555;SDS011;67851;51.354;7.744;2023-12-29T05:16:16;12.20;;;2.17;;
78555;SDS011;67851;51.354;7.744;2023-12-29T05:18:42;6.53;;;1.98;;
78555;SDS011;67851;51.354;7.744;2023-12-29T05:21:16;15.40;;;2.15;;
78555;SDS011;67851;51.354;7.744;2023-12-29T05:23:47;9.77;;;2.30;;
78555;SDS011;67851;51.354;7.744;2023-12-29T05:26:14;14.85;;;1.77;;
78555;SDS011;67851;51.354;7.744;2023-12-29T05:28:41;14.35;;;2.20;;
78555;SDS011;67851;51.354;7.744;2023-12-29T05:31:08;8.95;;;2.70;;
78555;SDS011;67851;51.354;7.744;2023-12-29T05:33:35;12.95;;;2.15;;
78555;SDS011;67851;51.354;7.744;2023-12-29T05:36:05;12.80;;;2.22;;
78555;SDS011;67851;51.354;7.744;2023-12-29T05:38:38;11.07;;;2.35;;
78555;SDS011;67851;51.354;7.744;2023-12-29T05:41:06;9.68;;;1.90;;
78555;SDS011;67851;51.354;7.744;2023-12-29T05:43:33;20.52;;;3.97;;
78555;SDS011;67851;51.354;7.744;2023-12-29T05:46:01;8.80;;;2.00;;
78555;SDS011;67851;51.354;7.744;2023-12-29T05:48:28;14.25;;;2.50;;
78555;SDS011;67851;51.354;7.744;2023-12-29T05:50:55;8.95;;;2.03;;
78555;SDS011;67851;51.354;7.744;2023-12-29T05:53:21;14.05;;;2.30;;
78555;SDS011;67851;51.354;7.744;2023-12-29T05:55:48;10.48;;;2.65;;
78555;SDS011;67851;51.354;7.744;2023-12-29T05:58:15;10.05;;;2.55;;
78555;SDS011;67851;51.354;7.744;2023-12-29T06:00:42;10.10;;;2.30;;
78555;SDS011;67851;51.354;7.744;2023-12-29T06:03:11;9.48;;;3.08;;
78555;SDS011;67851;51.354;7.744;2023-12-29T06:05:37;10.07;;;2.13;;
78555;SDS011;67851;51.354;7.744;2023-12-29T06:08:04;6.47;;;1.92;;
78555;SDS011;67851;51.354;7.744;2023-12-29T06:10:31;9.23;;;1.90;;
78555;SDS011;67851;51.354;7.744;2023-12-29T06:13:00;15.80;;;2.17;;
78555;SDS011;67851;51.354;7.744;2023-12-29T06:15:27;6.38;;;1.88;;
78555;SDS011;67851;51.354;7.744;2023-12-29T06:17:56;11.02;;;1.80;;
78555;SDS011;67851;51.354;7.744;2023-12-29T06:20:24;9.15;;;1.58;;
78555;SDS011;67851;51.354;7.744;2023-12-29T06:22:50;10.63;;;2.30;;
78555;SDS011;67851;51.354;7.744;2023-12-29T06:25:17;13.60;;;2.35;;
78555;SDS011;67851;51.354;7.744;2023-12-29T06:27:44;6.60;;;1.63;;
78555;SDS011;67851;51.354;7.744;2023-12-29T06:30:20;6.97;;;1.98;;
78555;SDS011;67851;51.354;7.744;2023-12-29T06:33:18;9.57;;;2.30;;
78555;SDS011;67851;51.354;7.744;2023-12-29T06:35:47;8.18;;;2.00;;
78555;SDS011;67851;51.354;7.744;2023-12-29T06:38:14;8.88;;;1.50;;
78555;SDS011;67851;51.354;7.744;2023-12-29T06:40:41;12.45;;;2.17;;
78555;SDS011;67851;51.354;7.744;2023-12-29T06:43:07;13.02;;;2.55;;
78555;SDS011;67851;51.354;7.744;2023-12-29T06:45:34;19.08;;;1.90;;
78555;SDS011;67851;51.354;7.744;2023-12-29T06:48:01;10.13;;;2.53;;
78555;SDS011;67851;51.354;7.744;2023-12-29T06:50:29;12.10;;;2.53;;
78555;SDS011;67851;51.354;7.744;2023-12-29T06:52:55;8.70;;;1.80;;
78555;SDS011;67851;51.354;7.744;2023-12-29T06:55:22;6.10;;;1.63;;
78555;SDS011;67851;51.354;7.744;2023-12-29T06:57:48;9.18;;;2.25;;
78555;SDS011;67851;51.354;7.744;2023-12-29T07:00:15;5.28;;;1.52;;
78555;SDS011;67851;51.354;7.744;2023-12-29T07:02:44;7.13;;;1.60;;
78555;SDS011;67851;51.354;7.744;2023-12-29T07:05:10;11.55;;;1.90;;
78555;SDS011;67851;51.354;7.744;2023-12-29T07:07:37;11.00;;;2.10;;
78555;SDS011;67851;51.354;7.744;2023-12-29T07:10:04;15.65;;;2.20;;
78555;SDS011;67851;51.354;7.744;2023-12-29T07:12:32;14.60;;;2.28;;
78555;SDS011;67851;51.354;7.744;2023-12-29T07:14:59;8.38;;;2.17;;
78555;SDS011;67851;51.354;7.744;2023-12-29T07:17:25;5.97;;;1.58;;
78555;SDS011;67851;51.354;7.744;2023-12-29T07:19:52;9.10;;;1.95;;
78555;SDS011;67851;51.354;7.744;2023-12-29T07:22:20;14.45;;;2.00;;
78555;SDS011;67851;51.354;7.744;2023-12-29T07:24:46;9.27;;;1.67;;
78555;SDS011;67851;51.354;7.744;2023-12-29T07:27:13;10.00;;;2.00;;
78555;SDS011;67851;51.354;7.744;2023-12-29T07:29:40;8.95;;;1.63;;
78555;SDS011;67851;51.354;7.744;2023-12-29T07:32:07;9.20;;;1.60;;
78555;SDS011;67851;51.354;7.744;2023-12-29T07:34:33;4.75;;;1.25;;
78555;SDS011;67851;51.354;7.744;2023-12-29T07:37:01;7.30;;;2.20;;
78555;SDS011;67851;51.354;7.744;2023-12-29T07:39:27;9.73;;;1.52;;
78555;SDS011;67851;51.354;7.744;2023-12-29T07:41:54;10.70;;;1.70;;
78555;SDS011;67851;51.354;7.744;2023-12-29T07:44:29;6.40;;;1.52;;
78555;SDS011;67851;51.354;7.744;2023-12-29T07:46:59;13.98;;;2.22;;
78555;SDS011;67851;51.354;7.744;2023-12-29T07:49:26;8.38;;;1.67;;
78555;SDS011;67851;51.354;7.744;2023-12-29T07:51:54;8.30;;;2.00;;
78555;SDS011;67851;51.354;7.744;2023-12-29T07:54:20;8.70;;;1.90;;
78555;SDS011;67851;51.354;7.744;2023-12-29T07:56:47;8.90;;;1.67;;
78555;SDS011;67851;51.354;7.744;2023-12-29T07:59:14;11.90;;;1.98;;
78555;SDS011;67851;51.354;7.744;2023-12-29T08:01:40;11.85;;;1.73;;
78555;SDS011;67851;51.354;7.744;2023-12-29T08:04:07;6.57;;;1.50;;
78555;SDS011;67851;51.354;7.744;2023-12-29T08:06:37;6.30;;;1.35;;
78555;SDS011;67851;51.354;7.744;2023-12-29T08:09:05;8.70;;;1.73;;
78555;SDS011;67851;51.354;7.744;2023-12-29T08:11:33;15.68;;;1.75;;
78555;SDS011;67851;51.354;7.744;2023-12-29T08:14:00;6.97;;;1.73;;
78555;SDS011;67851;51.354;7.744;2023-12-29T08:16:26;6.18;;;1.92;;
78555;SDS011;67851;51.354;7.744;2023-12-29T08:18:53;10.57;;;1.50;;
78555;SDS011;67851;51.354;7.744;2023-12-29T08:21:20;9.65;;;1.52;;
78555;SDS011;67851;51.354;7.744;2023-12-29T08:23:47;13.32;;;1.98;;
78555;SDS011;67851;51.354;7.744;2023-12-29T08:26:14;10.77;;;2.10;;
78555;SDS011;67851;51.354;7.744;2023-12-29T08:28:41;15.73;;;1.95;;
78555;SDS011;67851;51.354;7.744;2023-12-29T08:31:07;9.77;;;1.77;;
78555;SDS011;67851;51.354;7.744;2023-12-29T08:33:35;9.43;;;1.80;;
78555;SDS011;67851;51.354;7.744;2023-12-29T08:36:03;12.63;;;2.25;;
78555;SDS011;67851;51.354;7.744;2023-12-29T08:38:30;8.20;;;1.65;;
78555;SDS011;67851;51.354;7.744;2023-12-29T08:41:00;12.68;;;2.28;;
78555;SDS011;67851;51.354;7.744;2023-12-29T08:43:27;12.35;;;2.22;;
78555;SDS011;67851;51.354;7.744;2023-12-29T08:45:54;14.70;;;2.30;;
78555;SDS011;67851;51.354;7.744;2023-12-29T08:48:21;13.82;;;2.35;;
78555;SDS011;67851;51.354;7.744;2023-12-29T08:50:49;11.57;;;2.33;;
78555;SDS011;67851;51.354;7.744;2023-12-29T08:53:16;7.25;;;1.83;;
78555;SDS011;67851;51.354;7.744;2023-12-29T08:55:43;13.75;;;2.10;;
78555;SDS011;67851;51.354;7.744;2023-12-29T08:58:10;7.88;;;2.60;;
78555;SDS011;67851;51.354;7.744;2023-12-29T09:00:38;5.78;;;1.90;;
78555;SDS011;67851;51.354;7.744;2023-12-29T09:03:05;7.10;;;1.40;;
78555;SDS011;67851;51.354;7.744;2023-12-29T09:05:31;4.68;;;1.40;;
78555;SDS011;67851;51.354;7.744;2023-12-29T09:07:57;4.80;;;1.25;;
78555;SDS011;67851;51.354;7.744;2023-12-29T09:10:24;9.65;;;1.55;;
78555;SDS011;67851;51.354;7.744;2023-12-29T09:12:51;5.28;;;1.40;;
78555;SDS011;67851;51.354;7.744;2023-12-29T09:15:18;4.63;;;1.50;;
78555;SDS011;67851;51.354;7.744;2023-12-29T09:17:45;6.10;;;2.22;;
78555;SDS011;67851;51.354;7.744;2023-12-29T09:20:11;7.05;;;2.70;;
78555;SDS011;67851;51.354;7.744;2023-12-29T09:22:38;3.15;;;1.48;;
78555;SDS011;67851;51.354;7.744;2023-12-29T09:25:05;4.35;;;1.20;;
78555;SDS011;67851;51.354;7.744;2023-12-29T09:27:32;7.50;;;1.70;;
78555;SDS011;67851;51.354;7.744;2023-12-29T09:29:59;7.68;;;1.45;;
78555;SDS011;67851;51.354;7.744;2023-12-29T09:32:25;6.90;;;1.35;;
78555;SDS011;67851;51.354;7.744;2023-12-29T09:34:52;5.05;;;2.13;;
78555;SDS011;67851;51.354;7.744;2023-12-29T09:37:18;5.28;;;1.17;;
78555;SDS011;67851;51.354;7.744;2023-12-29T09:39:45;4.15;;;1.20;;
78555;SDS011;67851;51.354;7.744;2023-12-29T09:42:13;4.75;;;1.08;;
78555;SDS011;67851;51.354;7.744;2023-12-29T09:44:51;4.80;;;0.90;;
78555;SDS011;67851;51.354;7.744;2023-12-29T09:47:22;3.72;;;0.93;;
78555;SDS011;67851;51.354;7.744;2023-12-29T09:49:51;2.05;;;1.10;;
78555;SDS011;67851;51.354;7.744;2023-12-29T09:52:22;4.53;;;1.05;;
78555;SDS011;67851;51.354;7.744;2023-12-29T09:54:52;4.22;;;1.00;;
78555;SDS011;67851;51.354;7.744;2023-12-29T09:57:20;4.90;;;0.82;;
78555;SDS011;67851;51.354;7.744;2023-12-29T09:59:48;2.58;;;0.90;;
78555;SDS011;67851;51.354;7.744;2023-12-29T10:02:17;3.10;;;1.53;;
78555;SDS011;67851;51.354;7.744;2023-12-29T10:04:46;1.35;;;0.70;;
78555;SDS011;67851;51.354;7.744;2023-12-29T10:07:15;2.40;;;1.10;;
78555;SDS011;67851;51.354;7.744;2023-12-29T10:09:46;2.47;;;0.85;;
78555;SDS011;67851;51.354;7.744;2023-12-29T10:12:14;1.00;;;0.80;;
78555;SDS011;67851;51.354;7.744;2023-12-29T10:14:57;3.35;;;0.70;;
78555;SDS011;67851;51.354;7.744;2023-12-29T10:17:52;2.83;;;0.88;;
78555;SDS011;67851;51.354;7.744;2023-12-29T10:23:16;3.70;;;0.80;;
78555;SDS011;67851;51.354;7.744;2023-12-29T10:28:12;2.50;;;1.15;;
78555;SDS011;67851;51.354;7.744;2023-12-29T10:30:40;2.90;;;1.02;;
78555;SDS011;67851;51.354;7.744;2023-12-29T10:33:07;3.35;;;1.48;;
78555;SDS011;67851;51.354;7.744;2023-12-29T10:35:38;4.68;;;1.00;;
78555;SDS011;67851;51.354;7.744;2023-12-29T10:38:09;1.83;;;0.90;;
78555;SDS011;67851;51.354;7.744;2023-12-29T10:40:40;1.45;;;0.90;;
78555;SDS011;67851;51.354;7.744;2023-12-29T10:43:06;2.70;;;1.10;;
78555;SDS011;67851;51.354;7.744;2023-12-29T10:45:35;1.42;;;0.80;;
78555;SDS011;67851;51.354;7.744;2023-12-29T10:48:05;1.23;;;0.70;;
78555;SDS011;67851;51.354;7.744;2023-12-29T10:50:42;1.52;;;0.80;;
78555;SDS011;67851;51.354;7.744;2023-12-29T10:53:11;1.77;;;0.63;;
78555;SDS011;67851;51.354;7.744;2023-12-29T10:55:39;5.50;;;0.90;;
78555;SDS011;67851;51.354;7.744;2023-12-29T10:58:05;2.15;;;0.80;;
78555;SDS011;67851;51.354;7.744;2023-12-29T11:00:32;2.38;;;1.20;;
78555;SDS011;67851;51.354;7.744;2023-12-29T11:02:59;3.05;;;1.10;;
78555;SDS011;67851;51.354;7.744;2023-12-29T11:05:27;1.48;;;0.90;;
78555;SDS011;67851;51.354;7.744;2023-12-29T11:07:54;2.78;;;1.50;;
78555;SDS011;67851;51.354;7.744;2023-12-29T11:10:21;2.70;;;1.30;;
78555;SDS011;67851;51.354;7.744;2023-12-29T11:12:49;4.90;;;1.48;;
78555;SDS011;67851;51.354;7.744;2023-12-29T11:15:16;2.72;;;1.27;;
78555;SDS011;67851;51.354;7.744;2023-12-29T11:17:43;1.67;;;1.10;;
78555;SDS011;67851;51.354;7.744;2023-12-29T11:20:16;3.47;;;1.30;;
78555;SDS011;67851;51.354;7.744;2023-12-29T11:22:43;5.78;;;1.17;;
78555;SDS011;67851;51.354;7.744;2023-12-29T11:25:12;5.20;;;1.60;;
78555;SDS011;67851;51.354;7.744;2023-12-29T11:27:41;4.30;;;2.25;;
78555;SDS011;67851;51.354;7.744;2023-12-29T11:30:09;2.38;;;1.52;;
78555;SDS011;67851;51.354;7.744;2023-12-29T11:32:45;3.88;;;1.52;;
78555;SDS011;67851;51.354;7.744;2023-12-29T11:43:35;8.68;;;2.83;;
78555;SDS011;67851;51.354;7.744;2023-12-29T11:46:03;3.17;;;1.90;;
78555;SDS011;67851;51.354;7.744;2023-12-29T11:51:32;2.22;;;1.80;;
78555;SDS011;67851;51.354;7.744;2023-12-29T11:54:03;7.18;;;2.05;;
78555;SDS011;67851;51.354;7.744;2023-12-29T11:56:32;7.03;;;1.88;;
78555;SDS011;67851;51.354;7.744;2023-12-29T11:59:20;7.20;;;1.88;;
78555;SDS011;67851;51.354;7.744;2023-12-29T12:01:49;11.05;;;2.40;;
78555;SDS011;67851;51.354;7.744;2023-12-29T12:07:56;4.15;;;1.70;;
78555;SDS011;67851;51.354;7.744;2023-12-29T12:12:54;9.02;;;1.77;;
78555;SDS011;67851;51.354;7.744;2023-12-29T12:15:32;6.63;;;1.70;;
78555;SDS011;67851;51.354;7.744;2023-12-29T12:18:00;5.20;;;1.20;;
78555;SDS011;67851;51.354;7.744;2023-12-29T12:20:32;6.47;;;1.45;;
78555;SDS011;67851;51.354;7.744;2023-12-29T12:22:59;5.47;;;1.38;;
78555;SDS011;67851;51.354;7.744;2023-12-29T12:25:27;4.35;;;1.60;;
78555;SDS011;67851;51.354;7.744;2023-12-29T12:27:55;5.88;;;1.75;;
78555;SDS011;67851;51.354;7.744;2023-12-29T12:30:22;8.50;;;1.80;;
78555;SDS011;67851;51.354;7.744;2023-12-29T12:32:59;2.70;;;1.65;;
78555;SDS011;67851;51.354;7.744;2023-12-29T12:35:58;2.92;;;1.55;;
78555;SDS011;67851;51.354;7.744;2023-12-29T12:38:25;5.03;;;2.00;;
78555;SDS011;67851;51.354;7.744;2023-12-29T12:40:53;8.93;;;3.00;;
78555;SDS011;67851;51.354;7.744;2023-12-29T12:43:19;6.82;;;2.88;;
78555;SDS011;67851;51.354;7.744;2023-12-29T12:45:59;9.75;;;3.08;;
78555;SDS011;67851;51.354;7.744;2023-12-29T12:50:55;6.53;;;2.58;;
78555;SDS011;67851;51.354;7.744;2023-12-29T12:53:23;6.80;;;2.55;;
78555;SDS011;67851;51.354;7.744;2023-12-29T12:55:50;9.80;;;3.05;;
78555;SDS011;67851;51.354;7.744;2023-12-29T12:58:18;6.65;;;2.70;;
78555;SDS011;67851;51.354;7.744;2023-12-29T13:00:47;6.15;;;2.38;;
78555;SDS011;67851;51.354;7.744;2023-12-29T13:03:21;4.50;;;1.70;;
78555;SDS011;67851;51.354;7.744;2023-12-29T13:05:50;2.78;;;1.52;;
78555;SDS011;67851;51.354;7.744;2023-12-29T13:08:18;6.10;;;1.38;;
78555;SDS011;67851;51.354;7.744;2023-12-29T13:11:00;2.78;;;1.00;;
78555;SDS011;67851;51.354;7.744;2023-12-29T13:13:40;5.10;;;1.13;;
78555;SDS011;67851;51.354;7.744;2023-12-29T13:16:08;5.45;;;1.40;;
78555;SDS011;67851;51.354;7.744;2023-12-29T13:18:35;1.50;;;1.05;;
78555;SDS011;67851;51.354;7.744;2023-12-29T13:21:02;4.25;;;1.40;;
78555;SDS011;67851;51.354;7.744;2023-12-29T13:23:30;7.70;;;1.50;;
78555;SDS011;67851;51.354;7.744;2023-12-29T13:25:57;5.60;;;1.95;;
78555;SDS011;67851;51.354;7.744;2023-12-29T13:28:26;5.47;;;1.70;;
78555;SDS011;67851;51.354;7.744;2023-12-29T13:30:54;4.28;;;2.00;;
78555;SDS011;67851;51.354;7.744;2023-12-29T13:33:32;4.35;;;1.83;;
78555;SDS011;67851;51.354;7.744;2023-12-29T13:36:07;2.13;;;1.58;;
78555;SDS011;67851;51.354;7.744;2023-12-29T13:38:40;4.53;;;2.00;;
78555;SDS011;67851;51.354;7.744;2023-12-29T13:41:11;3.78;;;1.85;;
78555;SDS011;67851;51.354;7.744;2023-12-29T13:43:39;5.30;;;1.80;;
78555;SDS011;67851;51.354;7.744;2023-12-29T13:46:09;4.22;;;2.22;;
78555;SDS011;67851;51.354;7.744;2023-12-29T13:48:38;4.00;;;2.00;;
78555;SDS011;67851;51.354;7.744;2023-12-29T13:51:07;3.50;;;2.20;;
78555;SDS011;67851;51.354;7.744;2023-12-29T13:53:34;2.05;;;1.48;;
78555;SDS011;67851;51.354;7.744;2023-12-29T13:56:10;3.17;;;1.80;;
78555;SDS011;67851;51.354;7.744;2023-12-29T13:58:37;2.78;;;2.20;;
78555;SDS011;67851;51.354;7.744;2023-12-29T14:01:09;3.58;;;2.20;;
78555;SDS011;67851;51.354;7.744;2023-12-29T14:03:42;5.13;;;1.90;;
78555;SDS011;67851;51.354;7.744;2023-12-29T14:06:18;3.80;;;2.22;;
78555;SDS011;67851;51.354;7.744;2023-12-29T14:08:48;5.18;;;2.28;;
78555;SDS011;67851;51.354;7.744;2023-12-29T14:11:15;4.55;;;2.58;;
78555;SDS011;67851;51.354;7.744;2023-12-29T14:13:43;7.57;;;2.20;;
78555;SDS011;67851;51.354;7.744;2023-12-29T14:16:11;5.93;;;2.28;;
78555;SDS011;67851;51.354;7.744;2023-12-29T14:18:46;5.50;;;2.20;;
78555;SDS011;67851;51.354;7.744;2023-12-29T14:23:59;6.15;;;2.33;;
78555;SDS011;67851;51.354;7.744;2023-12-29T14:26:28;5.13;;;1.98;;
78555;SDS011;67851;51.354;7.744;2023-12-29T14:29:03;3.58;;;1.90;;
78555;SDS011;67851;51.354;7.744;2023-12-29T14:31:34;4.90;;;2.65;;
78555;SDS011;67851;51.354;7.744;2023-12-29T14:34:03;2.53;;;1.67;;
78555;SDS011;67851;51.354;7.744;2023-12-29T14:36:33;4.65;;;1.92;;
78555;SDS011;67851;51.354;7.744;2023-12-29T14:39:01;3.65;;;2.10;;
78555;SDS011;67851;51.354;7.744;2023-12-29T14:41:29;8.35;;;2.13;;
78555;SDS011;67851;51.354;7.744;2023-12-29T14:43:55;6.13;;;1.90;;
78555;SDS011;67851;51.354;7.744;2023-12-29T14:46:23;4.28;;;1.88;;
78555;SDS011;67851;51.354;7.744;2023-12-29T14:48:50;5.72;;;1.70;;
78555;SDS011;67851;51.354;7.744;2023-12-29T14:51:17;4.70;;;1.67;;
78555;SDS011;67851;51.354;7.744;2023-12-29T14:53:49;2.58;;;1.50;;
78555;SDS011;67851;51.354;7.744;2023-12-29T14:58:42;12.57;;;2.92;;
78555;SDS011;67851;51.354;7.744;2023-12-29T15:01:09;4.90;;;1.10;;
78555;SDS011;67851;51.354;7.744;2023-12-29T15:03:37;4.50;;;1.30;;
78555;SDS011;67851;51.354;7.744;2023-12-29T15:06:03;2.88;;;1.15;;
78555;SDS011;67851;51.354;7.744;2023-12-29T15:08:31;3.70;;;1.30;;
78555;SDS011;67851;51.354;7.744;2023-12-29T15:11:01;2.72;;;1.30;;
78555;SDS011;67851;51.354;7.744;2023-12-29T15:13:29;4.95;;;1.40;;
78555;SDS011;67851;51.354;7.744;2023-12-29T15:15:57;4.65;;;1.30;;
78555;SDS011;67851;51.354;7.744;2023-12-29T15:18:26;3.85;;;1.50;;
78555;SDS011;67851;51.354;7.744;2023-12-29T15:20:53;4.28;;;1.40;;
78555;SDS011;67851;51.354;7.744;2023-12-29T15:23:20;1.45;;;1.00;;
78555;SDS011;67851;51.354;7.744;2023-12-29T15:25:47;2.47;;;1.20;;
78555;SDS011;67851;51.354;7.744;2023-12-29T15:28:14;3.10;;;1.23;;